createdAt,value
2019-03-10T00:00:11.297Z,7.75
2019-03-10T00:02:11.395Z,7.69
2019-03-10T00:04:11.382Z,7.69
2019-03-10T00:06:11.448Z,7.69
2019-03-10T00:06:28.308Z,7.69
2019-03-10T00:08:11.472Z,7.69
2019-03-10T00:10:11.426Z,7.69
2019-03-10T00:12:11.418Z,7.69
2019-03-10T00:14:11.407Z,7.69
2019-03-10T00:16:11.419Z,7.69
2019-03-10T00:18:11.390Z,7.69
2019-03-10T00:20:11.303Z,7.69
2019-03-10T00:21:28.294Z,7.69
2019-03-10T00:22:11.306Z,7.69
2019-03-10T00:24:11.424Z,7.69
2019-03-10T00:26:12.396Z,7.63
2019-03-10T00:28:11.305Z,7.63
2019-03-10T00:30:11.304Z,7.63
2019-03-10T00:32:11.468Z,7.63
2019-03-10T00:34:11.329Z,7.63
2019-03-10T00:36:11.372Z,7.63
2019-03-10T00:36:28.317Z,7.63
2019-03-10T00:38:11.359Z,7.63
2019-03-10T00:40:11.480Z,7.63
2019-03-10T00:42:12.262Z,7.63
2019-03-10T00:44:11.318Z,7.63
2019-03-10T00:46:11.458Z,7.63
2019-03-10T00:48:11.381Z,7.63
2019-03-10T00:50:11.568Z,7.63
2019-03-10T00:51:28.333Z,7.63
2019-03-10T00:52:11.381Z,7.63
2019-03-10T00:54:11.346Z,7.63
2019-03-10T00:56:11.565Z,7.63
2019-03-10T00:58:11.431Z,7.63
2019-03-10T01:00:11.351Z,7.63
2019-03-10T01:02:11.437Z,7.63
2019-03-10T01:04:11.331Z,7.63
2019-03-10T01:06:12.179Z,7.56
2019-03-10T01:06:30.119Z,7.63
2019-03-10T01:08:11.340Z,7.63
2019-03-10T01:10:11.315Z,7.63
2019-03-10T01:12:11.428Z,7.56
2019-03-10T01:14:14.476Z,7.63
2019-03-10T01:16:11.442Z,7.56
2019-03-10T01:18:11.322Z,7.63
2019-03-10T01:20:11.376Z,7.56
2019-03-10T01:21:28.300Z,7.56
2019-03-10T01:22:11.303Z,7.56
2019-03-10T01:24:11.430Z,7.56
2019-03-10T01:26:11.380Z,7.56
2019-03-10T01:28:11.398Z,7.56
2019-03-10T01:30:11.400Z,7.56
2019-03-10T01:32:11.300Z,7.56
2019-03-10T01:34:11.391Z,7.56
2019-03-10T01:36:11.305Z,7.5
2019-03-10T01:36:28.348Z,7.5
2019-03-10T01:38:11.305Z,7.5
2019-03-10T01:40:11.529Z,7.5
2019-03-10T01:42:11.346Z,7.56
2019-03-10T01:44:11.438Z,7.56
2019-03-10T01:46:11.461Z,7.56
2019-03-10T01:48:11.442Z,7.56
2019-03-10T01:50:11.411Z,7.5
2019-03-10T01:51:28.260Z,7.56
2019-03-10T01:52:11.295Z,7.56
2019-03-10T01:54:11.404Z,7.56
2019-03-10T01:56:11.437Z,7.56
2019-03-10T01:58:12.315Z,7.63
2019-03-10T02:00:11.383Z,7.56
2019-03-10T02:02:11.446Z,7.56
2019-03-10T02:04:11.348Z,7.63
2019-03-10T02:06:11.375Z,7.56
2019-03-10T02:06:28.262Z,7.56
2019-03-10T02:08:11.449Z,7.56
2019-03-10T02:10:11.453Z,7.5
2019-03-10T02:12:11.436Z,7.44
2019-03-10T02:14:11.393Z,7.38
2019-03-10T02:16:11.427Z,7.38
2019-03-10T02:18:11.389Z,7.31
2019-03-10T02:20:11.446Z,7.31
2019-03-10T02:21:28.360Z,7.31
2019-03-10T02:22:11.516Z,7.31
2019-03-10T02:24:11.406Z,7.31
2019-03-10T02:26:11.422Z,7.19
2019-03-10T02:28:11.303Z,7.13
2019-03-10T02:30:11.433Z,7.06
2019-03-10T02:32:11.318Z,7.06
2019-03-10T02:34:11.495Z,6.94
2019-03-10T02:36:11.379Z,6.88
2019-03-10T02:36:28.350Z,6.88
2019-03-10T02:38:11.302Z,6.88
2019-03-10T02:40:11.302Z,6.88
2019-03-10T02:42:11.313Z,6.88
2019-03-10T02:44:11.450Z,6.75
2019-03-10T02:46:11.382Z,6.63
2019-03-10T02:48:11.376Z,6.56
2019-03-10T02:50:11.389Z,6.63
2019-03-10T02:51:28.405Z,6.63
2019-03-10T02:52:12.272Z,6.63
2019-03-10T02:54:11.416Z,6.63
2019-03-10T02:56:11.329Z,6.63
2019-03-10T02:58:11.432Z,6.63
2019-03-10T03:00:12.395Z,6.56
2019-03-10T03:02:11.322Z,6.56
2019-03-10T03:04:11.393Z,6.56
2019-03-10T03:06:11.407Z,6.56
2019-03-10T03:06:28.345Z,6.56
2019-03-10T03:08:11.321Z,6.56
2019-03-10T03:10:11.305Z,6.5
2019-03-10T03:12:11.383Z,6.5
2019-03-10T03:14:11.323Z,6.5
2019-03-10T03:16:11.325Z,6.44
2019-03-10T03:18:11.541Z,6.44
2019-03-10T03:20:11.391Z,6.44
2019-03-10T03:21:42.079Z,6.38
2019-03-10T03:22:11.453Z,6.38
2019-03-10T03:24:11.410Z,6.38
2019-03-10T03:26:11.420Z,6.31
2019-03-10T03:28:11.416Z,6.38
2019-03-10T03:30:11.381Z,6.31
2019-03-10T03:32:11.389Z,6.25
2019-03-10T03:34:11.405Z,6.31
2019-03-10T03:36:11.445Z,6.25
2019-03-10T03:36:28.234Z,6.25
2019-03-10T03:38:11.390Z,6.25
2019-03-10T03:40:11.475Z,6.13
2019-03-10T03:42:11.402Z,6.19
2019-03-10T03:44:11.390Z,6.19
2019-03-10T03:46:11.383Z,6.06
2019-03-10T03:48:11.299Z,6.13
2019-03-10T03:50:11.334Z,6.13
2019-03-10T03:51:28.427Z,6.25
2019-03-10T03:52:11.433Z,6.19
2019-03-10T03:54:11.374Z,6.13
2019-03-10T03:56:11.443Z,6.13
2019-03-10T03:58:11.303Z,6.13
2019-03-10T04:00:11.494Z,6.13
2019-03-10T04:02:11.331Z,6.13
2019-03-10T04:04:11.388Z,6.13
2019-03-10T04:06:11.377Z,6.13
2019-03-10T04:06:28.304Z,6.13
2019-03-10T04:08:11.423Z,6.06
2019-03-10T04:10:11.401Z,6.13
2019-03-10T04:12:11.365Z,6.13
2019-03-10T04:14:11.478Z,6.13
2019-03-10T04:16:11.384Z,6.19
2019-03-10T04:18:11.410Z,6.13
2019-03-10T04:20:11.379Z,6.06
2019-03-10T04:21:28.373Z,6.13
2019-03-10T04:22:11.382Z,6.06
2019-03-10T04:24:11.451Z,6
2019-03-10T04:26:11.444Z,6.06
2019-03-10T04:28:11.428Z,6
2019-03-10T04:30:11.386Z,6.06
2019-03-10T04:32:11.448Z,6.06
2019-03-10T04:34:11.418Z,6
2019-03-10T04:36:11.379Z,5.94
2019-03-10T04:36:28.306Z,5.94
2019-03-10T04:38:11.445Z,5.94
2019-03-10T04:40:11.416Z,5.88
2019-03-10T04:42:11.374Z,5.88
2019-03-10T04:44:11.319Z,5.88
2019-03-10T04:46:11.353Z,5.81
2019-03-10T04:48:11.346Z,5.88
2019-03-10T04:50:12.550Z,5.88
2019-03-10T04:51:29.213Z,5.81
2019-03-10T04:52:11.484Z,5.81
2019-03-10T04:54:11.400Z,5.88
2019-03-10T04:56:11.427Z,5.81
2019-03-10T04:58:16.418Z,5.88
2019-03-10T05:00:11.457Z,5.88
2019-03-10T05:02:11.462Z,5.88
2019-03-10T05:04:11.394Z,5.81
2019-03-10T05:06:11.386Z,5.81
2019-03-10T05:06:28.320Z,5.81
2019-03-10T05:08:11.384Z,5.81
2019-03-10T05:10:11.445Z,5.81
2019-03-10T05:12:11.398Z,5.75
2019-03-10T05:14:11.397Z,5.81
2019-03-10T05:16:11.450Z,5.81
2019-03-10T05:18:11.300Z,5.81
2019-03-10T05:20:11.457Z,5.81
2019-03-10T05:21:28.310Z,5.81
2019-03-10T05:22:11.411Z,5.81
2019-03-10T05:24:11.397Z,5.81
2019-03-10T05:26:11.317Z,5.81
2019-03-10T05:28:11.408Z,5.81
2019-03-10T05:30:12.288Z,5.81
2019-03-10T05:32:11.391Z,5.81
2019-03-10T05:34:11.316Z,5.75
2019-03-10T05:36:11.411Z,5.75
2019-03-10T05:36:28.370Z,5.75
2019-03-10T05:38:11.397Z,5.81
2019-03-10T05:40:11.413Z,5.69
2019-03-10T05:42:11.456Z,5.75
2019-03-10T05:44:11.472Z,5.69
2019-03-10T05:46:11.388Z,5.75
2019-03-10T05:48:13.068Z,5.75
2019-03-10T05:50:12.216Z,5.69
2019-03-10T05:51:28.386Z,5.69
2019-03-10T05:52:11.376Z,5.63
2019-03-10T05:54:11.408Z,5.63
2019-03-10T05:56:11.306Z,5.63
2019-03-10T05:58:11.422Z,5.63
2019-03-10T06:00:11.422Z,5.63
2019-03-10T06:02:11.333Z,5.69
2019-03-10T06:04:11.435Z,5.69
2019-03-10T06:06:11.436Z,5.63
2019-03-10T06:06:28.313Z,5.63
2019-03-10T06:08:11.315Z,5.63
2019-03-10T06:10:11.293Z,5.63
2019-03-10T06:12:11.381Z,5.69
2019-03-10T06:14:11.470Z,5.69
2019-03-10T06:16:11.432Z,5.75
2019-03-10T06:18:13.753Z,5.81
2019-03-10T06:20:11.429Z,5.81
2019-03-10T06:21:28.334Z,5.81
2019-03-10T06:22:11.385Z,5.75
2019-03-10T06:24:11.404Z,5.75
2019-03-10T06:26:11.463Z,5.75
2019-03-10T06:28:11.402Z,5.75
2019-03-10T06:30:11.388Z,5.81
2019-03-10T06:32:11.293Z,5.81
2019-03-10T06:34:11.471Z,5.81
2019-03-10T06:36:12.399Z,5.81
2019-03-10T06:36:28.258Z,5.88
2019-03-10T06:38:11.308Z,5.88
2019-03-10T06:40:11.463Z,5.88
2019-03-10T06:42:11.328Z,5.88
2019-03-10T06:44:11.408Z,5.94
2019-03-10T06:46:11.387Z,5.94
2019-03-10T06:48:11.414Z,6.06
2019-03-10T06:50:12.305Z,6.13
2019-03-10T06:51:28.398Z,6.31
2019-03-10T06:52:11.359Z,6.56
2019-03-10T06:54:11.471Z,6.88
2019-03-10T06:56:11.357Z,6.88
2019-03-10T06:58:11.413Z,6.44
2019-03-10T07:00:11.406Z,6.25
2019-03-10T07:02:11.428Z,6.38
2019-03-10T07:04:11.413Z,6.94
2019-03-10T07:06:11.479Z,7.25
2019-03-10T07:06:28.249Z,7.25
2019-03-10T07:08:11.554Z,7.31
2019-03-10T07:10:11.475Z,7.44
2019-03-10T07:12:11.427Z,7.5
2019-03-10T07:14:11.475Z,7.5
2019-03-10T07:16:11.430Z,7.56
2019-03-10T07:18:12.342Z,7.75
2019-03-10T07:20:11.461Z,7.88
2019-03-10T07:21:28.362Z,7.94
2019-03-10T07:22:11.423Z,8
2019-03-10T07:24:11.384Z,8.06
2019-03-10T07:26:11.411Z,8.13
2019-03-10T07:28:11.393Z,8.25
2019-03-10T07:30:11.356Z,8.5
2019-03-10T07:32:11.409Z,8.63
2019-03-10T07:34:11.391Z,8.75
2019-03-10T07:36:11.436Z,8.81
2019-03-10T07:36:28.274Z,8.81
2019-03-10T07:38:11.421Z,8.88
2019-03-10T07:40:12.274Z,8.94
2019-03-10T07:42:11.374Z,9.13
2019-03-10T07:44:11.440Z,9.19
2019-03-10T07:46:11.374Z,9.25
2019-03-10T07:48:11.396Z,9.25
2019-03-10T07:50:12.227Z,9.31
2019-03-10T07:51:28.329Z,9.38
2019-03-10T07:52:19.730Z,9.44
2019-03-10T07:54:11.406Z,9.5
2019-03-10T07:56:11.633Z,9.56
2019-03-10T07:58:11.485Z,9.63
2019-03-10T08:00:11.386Z,9.75
2019-03-10T08:02:11.423Z,9.81
2019-03-10T08:04:11.435Z,9.88
2019-03-10T08:06:11.394Z,9.88
2019-03-10T08:06:28.359Z,9.88
2019-03-10T08:08:11.380Z,9.88
2019-03-10T08:10:11.299Z,9.88
2019-03-10T08:12:11.442Z,9.94
2019-03-10T08:14:11.442Z,9.94
2019-03-10T08:16:11.307Z,9.94
2019-03-10T08:18:11.387Z,10.06
2019-03-10T08:20:12.558Z,10.13
2019-03-10T08:21:28.352Z,10.19
2019-03-10T08:22:11.296Z,10.19
2019-03-10T08:24:11.381Z,10.13
2019-03-10T08:26:11.294Z,10.19
2019-03-10T08:28:11.323Z,10.19
2019-03-10T08:30:11.349Z,10.25
2019-03-10T08:32:11.397Z,10.31
2019-03-10T08:34:11.464Z,10.31
2019-03-10T08:36:13.542Z,10.44
2019-03-10T08:36:28.354Z,10.44
2019-03-10T08:38:11.442Z,10.5
2019-03-10T08:40:11.447Z,10.44
2019-03-10T08:42:19.673Z,10.38
2019-03-10T08:44:11.634Z,10.44
2019-03-10T08:46:11.442Z,10.38
2019-03-10T08:48:11.355Z,10.31
2019-03-10T08:50:11.325Z,10.25
2019-03-10T08:51:28.292Z,10.19
2019-03-10T08:52:11.348Z,10.19
2019-03-10T08:54:11.406Z,10.13
2019-03-10T08:56:11.431Z,10
2019-03-10T08:58:11.382Z,9.94
2019-03-10T09:00:11.424Z,9.56
2019-03-10T09:02:11.333Z,9.44
2019-03-10T09:04:11.445Z,9.44
2019-03-10T09:06:11.399Z,9.38
2019-03-10T09:06:28.307Z,9.38
2019-03-10T09:08:11.299Z,9.38
2019-03-10T09:10:11.294Z,9.31
2019-03-10T09:12:12.324Z,9.31
2019-03-10T09:14:11.398Z,9.38
2019-03-10T09:16:11.301Z,9.44
2019-03-10T09:18:11.382Z,9.44
2019-03-10T09:20:11.519Z,9.44
2019-03-10T09:21:28.302Z,9.38
2019-03-10T09:22:11.383Z,9.44
2019-03-10T09:24:11.420Z,9.38
2019-03-10T09:26:11.441Z,9.31
2019-03-10T09:28:12.308Z,9.31
2019-03-10T09:30:11.421Z,9.38
2019-03-10T09:32:11.369Z,9.38
2019-03-10T09:34:11.301Z,9.38
2019-03-10T09:36:11.398Z,9.44
2019-03-10T09:36:29.264Z,9.5
2019-03-10T09:38:11.441Z,9.56
2019-03-10T09:40:11.321Z,9.69
2019-03-10T09:42:11.403Z,9.81
2019-03-10T09:44:11.383Z,9.94
2019-03-10T09:46:11.408Z,10.06
2019-03-10T09:48:11.377Z,10.25
2019-03-10T09:50:11.401Z,10.31
2019-03-10T09:51:28.411Z,10.25
2019-03-10T09:52:11.307Z,10.25
2019-03-10T09:54:11.396Z,10.31
2019-03-10T09:56:11.327Z,10.31
2019-03-10T09:58:11.337Z,10.25
2019-03-10T10:00:11.402Z,10.19
2019-03-10T10:02:11.414Z,10.25
2019-03-10T10:04:11.427Z,10.31
2019-03-10T10:06:11.422Z,10.25
2019-03-10T10:06:28.302Z,10.19
2019-03-10T10:08:11.372Z,9.88
2019-03-10T10:10:11.347Z,9.69
2019-03-10T10:12:13.566Z,9.63
2019-03-10T10:14:11.305Z,9.5
2019-03-10T10:16:11.297Z,9.31
2019-03-10T10:18:11.385Z,9.38
2019-03-10T10:20:12.449Z,9.56
2019-03-10T10:21:28.397Z,9.69
2019-03-10T10:22:11.403Z,9.75
2019-03-10T10:24:11.437Z,9.88
2019-03-10T10:26:11.374Z,9.94
2019-03-10T10:28:12.422Z,10.13
2019-03-10T10:30:11.401Z,10.25
2019-03-10T10:32:12.311Z,10.44
2019-03-10T10:34:11.460Z,10.56
2019-03-10T10:36:11.381Z,10.5
2019-03-10T10:36:28.311Z,10.5
2019-03-10T10:38:18.424Z,10.06
2019-03-10T10:40:11.521Z,9.63
2019-03-10T10:42:11.493Z,9.13
2019-03-10T10:44:11.323Z,9
2019-03-10T10:46:11.399Z,9.06
2019-03-10T10:48:11.391Z,9.13
2019-03-10T10:50:13.644Z,9.13
2019-03-10T10:51:29.781Z,9.19
2019-03-10T10:52:11.381Z,9.19
2019-03-10T10:54:11.307Z,9.25
2019-03-10T10:56:11.464Z,9.25
2019-03-10T10:58:11.383Z,9.31
2019-03-10T11:00:11.379Z,9.44
2019-03-10T11:02:11.454Z,9.5
2019-03-10T11:04:11.312Z,9.56
2019-03-10T11:06:11.395Z,9.69
2019-03-10T11:06:28.268Z,9.69
2019-03-10T11:08:11.433Z,9.69
2019-03-10T11:10:11.395Z,9.75
2019-03-10T11:12:11.520Z,9.75
2019-03-10T11:14:11.381Z,10
2019-03-10T11:16:11.361Z,10
2019-03-10T11:18:11.445Z,10
2019-03-10T11:20:11.392Z,10.06
2019-03-10T11:21:28.266Z,10.06
2019-03-10T11:22:11.425Z,10.06
2019-03-10T11:24:11.436Z,10
2019-03-10T11:26:11.389Z,9.88
2019-03-10T11:28:11.404Z,9.75
2019-03-10T11:30:11.377Z,9.56
2019-03-10T11:32:11.385Z,9.44
2019-03-10T11:34:11.396Z,9.31
2019-03-10T11:36:11.435Z,9.13
2019-03-10T11:36:28.306Z,9.13
2019-03-10T11:38:11.363Z,9.13
2019-03-10T11:40:11.302Z,9.06
2019-03-10T11:42:11.355Z,9
2019-03-10T11:44:11.395Z,8.94
2019-03-10T11:46:11.393Z,9
2019-03-10T11:48:11.317Z,9
2019-03-10T11:50:11.390Z,9
2019-03-10T11:51:28.327Z,9
2019-03-10T11:52:11.450Z,9
2019-03-10T11:54:11.392Z,9.13
2019-03-10T11:56:11.387Z,9.13
2019-03-10T11:58:11.433Z,9.13
2019-03-10T12:00:11.379Z,9.13
2019-03-10T12:02:15.772Z,9.13
2019-03-10T12:04:11.324Z,9.06
2019-03-10T12:06:11.376Z,9.06
2019-03-10T12:06:28.308Z,9.06
2019-03-10T12:08:11.378Z,9.19
2019-03-10T12:10:13.122Z,9.19
2019-03-10T12:12:11.390Z,9.13
2019-03-10T12:14:11.449Z,9.06
2019-03-10T12:16:11.407Z,9.06
2019-03-10T12:18:12.239Z,9
2019-03-10T12:20:11.294Z,8.88
2019-03-10T12:21:28.378Z,8.81
2019-03-10T12:22:11.381Z,8.81
2019-03-10T12:24:11.311Z,8.75
2019-03-10T12:26:12.182Z,8.88
2019-03-10T12:28:11.302Z,8.94
2019-03-10T12:30:11.412Z,9.13
2019-03-10T12:32:11.448Z,9.25
2019-03-10T12:34:11.393Z,9.38
2019-03-10T12:36:11.366Z,9.44
2019-03-10T12:36:28.329Z,9.44
2019-03-10T12:38:11.332Z,9.44
2019-03-10T12:40:11.392Z,9.56
2019-03-10T12:42:11.324Z,9.69
2019-03-10T12:44:11.385Z,9.88
2019-03-10T12:46:11.326Z,9.94
2019-03-10T12:48:11.390Z,10
2019-03-10T12:50:11.373Z,10
2019-03-10T12:51:28.338Z,10.06
2019-03-10T12:52:11.321Z,10.06
2019-03-10T12:54:11.377Z,10.13
2019-03-10T12:56:11.343Z,10.19
2019-03-10T12:58:11.437Z,10.19
2019-03-10T13:00:13.324Z,10.38
2019-03-10T13:02:11.442Z,10.5
2019-03-10T13:04:11.337Z,10.63
2019-03-10T13:06:11.449Z,10.63
2019-03-10T13:06:28.260Z,10.63
2019-03-10T13:08:13.077Z,10.63
2019-03-10T13:10:12.644Z,10.56
2019-03-10T13:12:11.392Z,10.5
2019-03-10T13:14:11.341Z,10.5
2019-03-10T13:16:12.442Z,10.44
2019-03-10T13:18:11.459Z,10.44
2019-03-10T13:20:11.354Z,10.38
2019-03-10T13:21:28.454Z,10.44
2019-03-10T13:22:11.468Z,10.44
2019-03-10T13:24:12.268Z,10.56
2019-03-10T13:26:11.387Z,10.56
2019-03-10T13:28:11.622Z,10.63
2019-03-10T13:30:11.474Z,10.56
2019-03-10T13:32:11.428Z,10.56
2019-03-10T13:34:11.409Z,10.56
2019-03-10T13:36:11.408Z,10.5
2019-03-10T13:36:28.419Z,10.5
2019-03-10T13:38:11.420Z,10.63
2019-03-10T13:40:11.890Z,10.81
2019-03-10T13:42:11.354Z,10.81
2019-03-10T13:44:11.382Z,10.75
2019-03-10T13:46:12.285Z,10.81
2019-03-10T13:48:11.399Z,10.75
2019-03-10T13:50:12.522Z,10.75
2019-03-10T13:51:28.285Z,10.75
2019-03-10T13:52:12.264Z,10.75
2019-03-10T13:54:12.295Z,10.56
2019-03-10T13:56:11.392Z,10.56
2019-03-10T13:58:12.327Z,10.69
2019-03-10T14:00:11.403Z,10.69
2019-03-10T14:02:11.375Z,10.63
2019-03-10T14:04:11.426Z,10.25
2019-03-10T14:06:11.442Z,10.25
2019-03-10T14:06:28.234Z,10.25
2019-03-10T14:08:12.246Z,10.19
2019-03-10T14:10:11.412Z,10.19
2019-03-10T14:12:11.408Z,10.19
2019-03-10T14:14:11.399Z,10.19
2019-03-10T14:16:11.401Z,10.31
2019-03-10T14:18:11.419Z,10.44
2019-03-10T14:20:11.424Z,10.56
2019-03-10T14:21:28.301Z,10.5
2019-03-10T14:22:11.396Z,10.5
2019-03-10T14:24:11.541Z,10.56
2019-03-10T14:26:11.541Z,10.63
2019-03-10T14:28:11.489Z,10.31
2019-03-10T14:30:11.409Z,10.25
2019-03-10T14:32:12.302Z,10.13
2019-03-10T14:34:11.399Z,10.25
2019-03-10T14:36:11.438Z,10
2019-03-10T14:36:28.330Z,9.94
2019-03-10T14:38:11.453Z,10.13
2019-03-10T14:40:11.410Z,10.13
2019-03-10T14:42:11.483Z,10
2019-03-10T14:44:12.287Z,9.94
2019-03-10T14:46:11.492Z,9.81
2019-03-10T14:48:11.425Z,9.5
2019-03-10T14:50:11.418Z,9.44
2019-03-10T14:51:28.363Z,9.5
2019-03-10T14:52:12.306Z,9.38
2019-03-10T14:54:12.249Z,9.31
2019-03-10T14:56:11.396Z,9.13
2019-03-10T14:58:11.444Z,9.44
2019-03-10T15:00:11.436Z,9.69
2019-03-10T15:02:11.432Z,9.44
2019-03-10T15:04:11.458Z,9.69
2019-03-10T15:06:12.250Z,9.81
2019-03-10T15:06:28.223Z,9.75
2019-03-10T15:08:11.434Z,9.94
2019-03-10T15:10:11.429Z,9.94
2019-03-10T15:12:12.210Z,10.25
2019-03-10T15:14:11.424Z,10.06
2019-03-10T15:16:11.410Z,9.69
2019-03-10T15:18:11.498Z,9.38
2019-03-10T15:20:12.313Z,9.13
2019-03-10T15:21:28.418Z,9.06
2019-03-10T15:22:11.498Z,9
2019-03-10T15:24:11.396Z,9
2019-03-10T15:26:11.402Z,8.94
2019-03-10T15:28:11.439Z,8.94
2019-03-10T15:30:11.450Z,8.81
2019-03-10T15:32:12.340Z,8.69
2019-03-10T15:34:11.464Z,8.63
2019-03-10T15:36:19.650Z,8.5
2019-03-10T15:36:28.278Z,8.5
2019-03-10T15:38:11.403Z,8.38
2019-03-10T15:40:11.454Z,8.31
2019-03-10T15:42:11.496Z,8.25
2019-03-10T15:44:11.484Z,8.13
2019-03-10T15:46:11.458Z,8
2019-03-10T15:48:11.468Z,7.88
2019-03-10T15:50:11.403Z,7.69
2019-03-10T15:51:28.258Z,7.38
2019-03-10T15:52:12.244Z,7.38
2019-03-10T15:54:11.567Z,7.25
2019-03-10T15:56:11.478Z,7.31
2019-03-10T15:58:12.282Z,7.25
2019-03-10T16:00:11.481Z,7.19
2019-03-10T16:02:11.473Z,7.06
2019-03-10T16:04:12.292Z,7.06
2019-03-10T16:06:11.489Z,6.75
2019-03-10T16:06:28.290Z,6.75
2019-03-10T16:08:11.482Z,6.5
2019-03-10T16:10:11.493Z,6.56
2019-03-10T16:12:12.319Z,6.56
2019-03-10T16:14:12.292Z,6.63
2019-03-10T16:16:12.219Z,6.75
2019-03-10T16:18:11.465Z,6.88
2019-03-10T16:20:12.256Z,6.75
2019-03-10T16:21:28.394Z,6.56
2019-03-10T16:22:12.265Z,6.5
2019-03-10T16:24:11.495Z,6
2019-03-10T16:26:11.515Z,5.94
2019-03-10T16:28:12.349Z,6.06
2019-03-10T16:30:11.485Z,6.13
2019-03-10T16:32:11.500Z,6
2019-03-10T16:34:11.550Z,5.88
2019-03-10T16:36:11.497Z,5.69
2019-03-10T16:36:28.314Z,5.75
2019-03-10T16:38:12.236Z,5.69
2019-03-10T16:40:11.431Z,5.56
2019-03-10T16:42:13.648Z,5.56
2019-03-10T16:44:11.510Z,5.31
2019-03-10T16:46:11.489Z,5.25
2019-03-10T16:48:11.520Z,5.25
2019-03-10T16:50:11.432Z,5.25
2019-03-10T16:51:28.390Z,5.31
2019-03-10T16:52:12.191Z,5.31
2019-03-10T16:54:11.432Z,5.38
2019-03-10T16:56:11.518Z,5.31
2019-03-10T16:58:11.481Z,5.44
2019-03-10T17:00:13.209Z,5.5
2019-03-10T17:02:11.468Z,5.63
2019-03-10T17:04:11.557Z,5.69
2019-03-10T17:06:11.504Z,5.69
2019-03-10T17:06:28.225Z,5.69
2019-03-10T17:08:12.315Z,5.75
2019-03-10T17:10:11.576Z,5.69
2019-03-10T17:12:11.448Z,5.69
2019-03-10T17:14:11.496Z,5.56
2019-03-10T17:16:11.497Z,5.56
2019-03-10T17:18:11.465Z,5.56
2019-03-10T17:20:11.473Z,5.56
2019-03-10T17:21:28.376Z,5.5
2019-03-10T17:22:11.467Z,5.5
2019-03-10T17:24:11.500Z,5.56
2019-03-10T17:26:11.499Z,5.56
2019-03-10T17:28:11.493Z,5.63
2019-03-10T17:30:11.486Z,5.63
2019-03-10T17:32:11.541Z,5.63
2019-03-10T17:34:11.556Z,5.69
2019-03-10T17:36:11.500Z,5.75
2019-03-10T17:36:28.298Z,5.75
2019-03-10T17:38:11.530Z,5.75
2019-03-10T17:40:11.562Z,5.75
2019-03-10T17:42:11.511Z,5.75
2019-03-10T17:44:11.512Z,5.69
2019-03-10T17:46:11.552Z,5.56
2019-03-10T17:48:13.128Z,5.56
2019-03-10T17:50:11.510Z,5.56
2019-03-10T17:51:28.350Z,5.5
2019-03-10T17:52:14.565Z,5.5
2019-03-10T17:54:11.534Z,5.44
2019-03-10T17:56:11.520Z,5.44
2019-03-10T17:58:11.443Z,5.5
2019-03-10T18:00:11.490Z,5.5
2019-03-10T18:02:11.529Z,5.5
2019-03-10T18:04:11.580Z,5.5
2019-03-10T18:06:11.562Z,5.5
2019-03-10T18:06:28.377Z,5.5
2019-03-10T18:08:11.564Z,5.5
2019-03-10T18:10:11.506Z,5.5
2019-03-10T18:12:11.503Z,5.5
2019-03-10T18:14:13.205Z,5.56
2019-03-10T18:16:11.632Z,5.56
2019-03-10T18:18:11.575Z,5.63
2019-03-10T18:20:11.599Z,5.69
2019-03-10T18:21:28.277Z,5.63
2019-03-10T18:22:11.580Z,5.56
2019-03-10T18:24:11.544Z,5.5
2019-03-10T18:26:11.545Z,5.44
2019-03-10T18:28:12.310Z,5.38
2019-03-10T18:30:11.569Z,5.31
2019-03-10T18:32:11.558Z,5.25
2019-03-10T18:34:12.228Z,5.25
2019-03-10T18:36:12.301Z,5.19
2019-03-10T18:36:28.301Z,5.13
2019-03-10T18:38:11.575Z,5.13
2019-03-10T18:40:11.598Z,5.06
2019-03-10T18:42:11.562Z,5.06
2019-03-10T18:44:11.539Z,4.94
2019-03-10T18:46:11.563Z,4.94
2019-03-10T18:48:11.516Z,4.88
2019-03-10T18:50:11.481Z,4.88
2019-03-10T18:51:28.375Z,4.81
2019-03-10T18:52:11.566Z,4.81
2019-03-10T18:54:11.553Z,4.81
2019-03-10T18:56:11.488Z,4.81
2019-03-10T18:58:11.577Z,4.81
2019-03-10T19:00:11.477Z,4.75
2019-03-10T19:02:11.560Z,4.81
2019-03-10T19:04:11.568Z,4.81
2019-03-10T19:06:11.586Z,4.81
2019-03-10T19:06:28.271Z,4.81
2019-03-10T19:08:11.877Z,4.75
2019-03-10T19:10:11.482Z,4.75
2019-03-10T19:12:11.489Z,4.75
2019-03-10T19:14:11.532Z,4.69
2019-03-10T19:16:11.506Z,4.69
2019-03-10T19:18:11.675Z,4.69
2019-03-10T19:20:11.512Z,4.69
2019-03-10T19:21:28.407Z,4.69
2019-03-10T19:22:11.611Z,4.75
2019-03-10T19:24:11.626Z,4.69
2019-03-10T19:26:11.625Z,4.69
2019-03-10T19:28:11.715Z,4.75
2019-03-10T19:30:11.635Z,4.75
2019-03-10T19:32:11.582Z,4.88
2019-03-10T19:34:11.563Z,4.88
2019-03-10T19:36:11.585Z,5.06
2019-03-10T19:36:28.329Z,5.06
2019-03-10T19:38:12.318Z,5.19
2019-03-10T19:40:11.612Z,5.06
2019-03-10T19:42:11.502Z,4.75
2019-03-10T19:44:11.655Z,4.25
2019-03-10T19:46:11.514Z,4.13
2019-03-10T19:48:12.394Z,4
2019-03-10T19:50:11.602Z,3.88
2019-03-10T19:51:28.390Z,3.81
2019-03-10T19:52:11.585Z,3.88
2019-03-10T19:54:11.638Z,3.94
2019-03-10T19:56:11.608Z,3.88
2019-03-10T19:58:11.595Z,4.06
2019-03-10T20:00:11.531Z,4.19
2019-03-10T20:02:11.630Z,4.38
2019-03-10T20:04:11.623Z,4.44
2019-03-10T20:06:11.611Z,4.56
2019-03-10T20:06:28.303Z,4.56
2019-03-10T20:08:11.622Z,4.56
2019-03-10T20:10:11.580Z,4.56
2019-03-10T20:12:11.545Z,4.63
2019-03-10T20:14:11.541Z,4.63
2019-03-10T20:16:11.563Z,4.63
2019-03-10T20:18:11.616Z,4.63
2019-03-10T20:20:11.548Z,4.69
2019-03-10T20:21:28.377Z,4.63
2019-03-10T20:22:12.250Z,4.69
2019-03-10T20:24:11.586Z,4.75
2019-03-10T20:26:11.516Z,4.75
2019-03-10T20:28:11.561Z,4.75
2019-03-10T20:30:21.401Z,4.81
2019-03-10T20:32:14.058Z,4.81
2019-03-10T20:34:11.543Z,4.75
2019-03-10T20:36:11.567Z,4.81
2019-03-10T20:36:28.720Z,4.75
2019-03-10T20:38:11.649Z,4.81
2019-03-10T20:40:11.553Z,4.81
2019-03-10T20:42:12.265Z,4.81
2019-03-10T20:44:11.558Z,4.81
2019-03-10T20:46:11.613Z,4.81
2019-03-10T20:48:11.559Z,4.81
2019-03-10T20:50:11.629Z,4.81
2019-03-10T20:51:28.379Z,4.81
2019-03-10T20:52:11.567Z,4.81
2019-03-10T20:54:11.592Z,4.88
2019-03-10T20:56:12.253Z,4.88
2019-03-10T20:58:11.640Z,4.88
2019-03-10T21:00:11.674Z,4.81
2019-03-10T21:02:11.568Z,4.81
2019-03-10T21:04:11.565Z,4.81
2019-03-10T21:06:11.545Z,4.75
2019-03-10T21:06:28.303Z,4.75
2019-03-10T21:08:11.575Z,4.69
2019-03-10T21:10:11.574Z,4.75
2019-03-10T21:12:11.596Z,4.69
2019-03-10T21:14:11.582Z,4.69
2019-03-10T21:16:11.574Z,4.63
2019-03-10T21:18:11.582Z,4.5
2019-03-10T21:20:11.595Z,4.56
2019-03-10T21:21:28.323Z,4.5
2019-03-10T21:22:11.599Z,4.44
2019-03-10T21:24:12.226Z,4.38
2019-03-10T21:26:11.593Z,4.38
2019-03-10T21:28:11.580Z,4.31
2019-03-10T21:30:11.711Z,4.31
2019-03-10T21:32:11.605Z,4.31
2019-03-10T21:34:11.568Z,4.38
2019-03-10T21:36:12.296Z,4.38
2019-03-10T21:36:28.281Z,4.38
2019-03-10T21:38:11.461Z,4.44
2019-03-10T21:40:11.593Z,4.44
2019-03-10T21:42:11.589Z,4.44
2019-03-10T21:44:11.593Z,4.44
2019-03-10T21:46:11.608Z,4.38
2019-03-10T21:48:11.599Z,4.31
2019-03-10T21:50:11.598Z,4.38
2019-03-10T21:51:28.397Z,4.38
2019-03-10T21:52:11.615Z,4.38
2019-03-10T21:54:11.703Z,4.38
2019-03-10T21:56:11.610Z,4.44
2019-03-10T21:58:11.690Z,4.56
2019-03-10T22:00:11.607Z,4.56
2019-03-10T22:02:11.729Z,4.63
2019-03-10T22:04:12.277Z,4.63
2019-03-10T22:06:11.598Z,4.56
2019-03-10T22:06:28.219Z,4.56
2019-03-10T22:08:11.702Z,4.56
2019-03-10T22:10:11.629Z,4.56
2019-03-10T22:12:11.689Z,4.56
2019-03-10T22:14:11.711Z,4.5
2019-03-10T22:16:11.611Z,4.5
2019-03-10T22:18:11.623Z,4.5
2019-03-10T22:20:11.648Z,4.44
2019-03-10T22:21:28.414Z,4.44
2019-03-10T22:22:11.700Z,4.44
2019-03-10T22:24:16.348Z,4.44
2019-03-10T22:26:11.637Z,4.44
2019-03-10T22:28:11.727Z,4.38
2019-03-10T22:30:12.501Z,4.25
2019-03-10T22:32:11.713Z,4.31
2019-03-10T22:34:11.687Z,4.25
2019-03-10T22:36:11.640Z,4.31
2019-03-10T22:36:28.282Z,4.31
2019-03-10T22:38:11.462Z,4.31
2019-03-10T22:40:11.801Z,4.31
2019-03-10T22:42:11.455Z,4.25
2019-03-10T22:44:11.659Z,4.19
2019-03-10T22:46:11.454Z,4.19
2019-03-10T22:48:11.465Z,4.19
2019-03-10T22:50:11.666Z,4.25
2019-03-10T22:51:28.396Z,4.19
2019-03-10T22:52:11.636Z,4.25
2019-03-10T22:54:11.754Z,4.25
2019-03-10T22:56:11.629Z,4.13
2019-03-10T22:58:11.670Z,4.19
2019-03-10T23:00:11.675Z,4.25
2019-03-10T23:02:11.472Z,4.25
2019-03-10T23:04:11.652Z,4.19
2019-03-10T23:06:13.264Z,4.25
2019-03-10T23:06:28.380Z,4.31
2019-03-10T23:08:11.527Z,4.31
2019-03-10T23:10:11.532Z,4.25
2019-03-10T23:12:11.840Z,4.25
2019-03-10T23:14:11.761Z,4.31
2019-03-10T23:16:11.681Z,4.31
2019-03-10T23:18:11.828Z,4.31
2019-03-10T23:20:11.684Z,4.38
2019-03-10T23:21:28.383Z,4.38
2019-03-10T23:22:11.820Z,4.38
2019-03-10T23:24:11.686Z,4.44
2019-03-10T23:26:11.829Z,4.5
2019-03-10T23:28:11.814Z,4.56
2019-03-10T23:30:11.815Z,4.31